Time;durP1;ratioP1;P1;durP2;ratioP2;P2;SDS_P1;SDS_P2;PMS_P1;PMS_P2;Temp;Humidity;BMP_temperature;BMP_pressure;BME280_temperature;BME280_humidity;BME280_pressure;Samples;Min_cycle;Max_cycle;Signal;HPM_P1;HPM_P2
2022/04/06 04:14:15;;;;;;;;;;;;;;;8.50;68.70;96298.34;4253152;27;10227;-65
2022/04/06 04:16:17;;;;;;;;;;;;;;;8.47;69.18;96296.88;4233600;27;5609;-65
2022/04/06 04:18:19;;;;;;;;;;;;;;;8.52;68.82;96291.06;4244502;27;6446;-65
2022/04/06 04:20:21;;;;;;;;;;;;;;;8.61;68.20;96298.63;4226264;28;5620;-64
2022/04/06 04:22:23;;;;;;;;;;;;;;;8.62;68.51;96291.53;4233009;27;5664;-65
2022/04/06 04:24:25;;;;;;;;;;;;;;;8.64;68.62;96290.31;4248058;27;5637;-65
2022/04/06 04:26:27;;;;;;;;;;;;;;;8.68;68.39;96283.66;4242097;27;5649;-64
2022/04/06 04:28:28;;;;;;;;;;;;;;;8.74;68.04;96284.72;4246779;27;5646;-65
2022/04/06 04:30:30;;;;;;;;;;;;;;;8.75;67.92;96283.69;4247708;27;5733;-65
2022/04/06 04:32:31;;;;;;;;;;;;;;;8.74;67.67;96285.53;4241124;27;5845;-65
2022/04/06 04:34:34;;;;;;;;;;;;;;;8.72;67.88;96282.28;4245178;27;5645;-66
2022/04/06 04:36:36;;;;;;;;;;;;;;;8.68;68.07;96291.56;4243764;27;5796;-65
2022/04/06 04:38:37;;;;;;;;;;;;;;;8.72;67.68;96282.28;4240298;27;5803;-65
2022/04/06 04:40:39;;;;;;;;;;;;;;;8.75;67.52;96283.69;4242607;27;5721;-65
2022/04/06 04:42:40;;;;;;;;;;;;;;;8.74;67.48;96288.16;4245031;27;5589;-66
2022/04/06 04:44:42;;;;;;;;;;;;;;;8.76;67.39;96287.97;4246056;27;5674;-65
2022/04/06 04:46:44;;;;;;;;;;;;;;;8.72;67.65;96282.28;4242587;27;5803;-65
2022/04/06 04:48:46;;;;;;;;;;;;;;;8.73;67.80;96293.63;4244390;27;5775;-66
2022/04/06 04:50:47;;;;;;;;;;;;;;;8.79;67.34;96292.03;4229450;28;5682;-66
2022/04/06 04:52:49;;;;;;;;;;;;;;;8.82;67.18;96291.63;4213686;28;5779;-65
2022/04/06 04:54:51;;;;;;;;;;;;;;;8.85;67.23;96291.25;4235867;27;5605;-66
2022/04/06 04:56:52;;;;;;;;;;;;;;;8.84;67.08;96294.91;4232771;27;5659;-66
2022/04/06 04:58:54;;;;;;;;;;;;;;;8.87;67.13;96294.50;4227197;27;5826;-65
2022/04/06 05:00:56;;;;;;;;;;;;;;;8.88;67.34;96285.59;4234988;27;5818;-65
2022/04/06 05:02:58;;;;;;;;;;;;;;;8.88;67.28;96290.88;4243184;27;5649;-65
2022/04/06 05:04:59;;;;;;;;;;;;;;;8.85;67.48;96286.81;4229488;27;5800;-65
2022/04/06 05:07:01;;;;;;;;;;;;;;;8.83;67.38;96287.97;4219384;27;5731;-66
2022/04/06 05:09:03;;;;;;;;;;;;;;;8.82;67.47;96286.34;4237723;27;5646;-65
2022/04/06 05:11:04;;;;;;;;;;;;;;;8.82;67.44;96281.09;4238267;27;5650;-65
2022/04/06 05:13:06;;;;;;;;;;;;;;;8.80;67.59;96283.94;4231390;27;5754;-66
2022/04/06 05:15:08;;;;;;;;;;;;;;;8.82;67.18;96283.72;4221818;28;5685;-65
2022/04/06 05:17:10;;;;;;;;;;;;;;;8.84;67.09;96279.09;4232197;28;5752;-65
2022/04/06 05:19:12;;;;;;;;;;;;;;;8.84;67.55;96285.19;4234165;28;5906;-65
2022/04/06 05:21:13;;;;;;;;;;;;;;;8.82;67.48;96281.09;4216841;27;5722;-66
2022/04/06 05:23:15;;;;;;;;;;;;;;;8.80;67.80;96291.84;4209375;28;5792;-65
2022/04/06 05:25:17;;;;;;;;;;;;;;;8.72;68.42;96284.91;4229697;28;5752;-68
2022/04/06 05:27:19;;;;;;;;;;;;;;;8.71;68.05;96287.72;4234378;28;5725;-64
2022/04/06 05:29:21;;;;;;;;;;;;;;;8.71;68.31;96296.44;4235761;28;5662;-63
2022/04/06 05:31:23;;;;;;;;;;;;;;;8.72;68.43;96289.34;4215450;28;5751;-63
2022/04/06 05:33:24;;;;;;;;;;;;;;;8.73;68.70;96289.19;4212601;28;5751;-63
2022/04/06 05:35:27;;;;;;;;;;;;;;;8.69;68.71;96287.91;4221284;28;5665;-66
2022/04/06 05:37:29;;;;;;;;;;;;;;;8.70;69.05;96289.53;4221769;28;5742;-65
2022/04/06 05:39:30;;;;;;;;;;;;;;;8.65;70.62;96291.13;4232820;28;5649;-63
2022/04/06 05:41:32;;;;;;;;;;;;;;;8.36;73.51;96292.94;4230378;28;5705;-64
2022/04/06 05:43:33;;;;;;;;;;;;;;;8.59;70.74;96290.06;4218376;28;5679;-66
2022/04/06 05:45:36;;;;;;;;;;;;;;;8.60;70.94;96296.97;4231021;28;5695;-63
2022/04/06 05:47:39;;;;;;;;;;;;;;;8.70;70.44;96300.09;4230536;27;7293;-67
2022/04/06 05:49:41;;;;;;;;;;;;;;;8.73;70.48;96299.72;4215201;28;5660;-64
2022/04/06 05:51:44;;;;;;;;;;;;;;;8.72;71.48;96298.09;4207208;28;5687;-64
2022/04/06 05:53:46;;;;;;;;;;;;;;;8.74;70.94;96296.06;4217219;28;5823;-64
2022/04/06 05:55:47;;;;;;;;;;;;;;;8.80;70.83;96298.94;4218194;28;5684;-65
2022/04/06 05:57:49;;;;;;;;;;;;;;;8.84;70.72;96301.00;4232503;28;5693;-67
2022/04/06 05:59:50;;;;;;;;;;;;;;;8.88;71.09;96302.22;4218410;28;5641;-63
2022/04/06 06:01:52;;;;;;;;;;;;;;;8.88;71.60;96307.50;4202670;28;5752;-65
2022/04/06 06:03:55;;;;;;;;;;;;;;;8.89;71.58;96300.41;4220137;28;5669;-65
2022/04/06 06:05:56;;;;;;;;;;;;;;;8.92;71.78;96297.38;4234249;28;5658;-66
2022/04/06 06:07:58;;;;;;;;;;;;;;;8.94;71.33;96300.63;4221528;28;5692;-63
2022/04/06 06:10:02;;;;;;;;;;;;;;;8.89;72.39;96300.41;4222146;28;5851;-63
2022/04/06 06:12:04;;;;;;;;;;;;;;;8.93;73.15;96296.34;4233678;28;5662;-63
2022/04/06 06:14:05;;;;;;;;;;;;;;;8.64;74.33;96303.50;4216515;28;5636;-63
2022/04/06 06:16:07;;;;;;;;;;;;;;;8.68;75.03;96290.75;4222998;28;6340;-66
2022/04/06 06:18:09;;;;;;;;;;;;;;;8.79;73.21;96307.84;4226323;28;5673;-64
2022/04/06 06:20:11;;;;;;;;;;;;;;;8.87;73.61;96299.78;4231959;28;5878;-63
2022/04/06 06:22:12;;;;;;;;;;;;;;;8.88;73.60;96306.69;4235016;27;5698;-63
2022/04/06 06:24:14;;;;;;;;;;;;;;;8.81;73.45;96303.19;4231664;28;5654;-63
2022/04/06 06:26:16;;;;;;;;;;;;;;;8.93;72.77;96296.34;4232453;28;5814;-64
2022/04/06 06:28:17;;;;;;;;;;;;;;;9.03;72.06;96308.19;4233356;28;5604;-63
2022/04/06 06:30:19;;;;;;;;;;;;;;;9.02;72.21;96300.47;4232563;28;5760;-63
2022/04/06 06:32:21;;;;;;;;;;;;;;;8.97;72.09;96300.25;4234568;28;5653;-62
2022/04/06 06:34:22;;;;;;;;;;;;;;;8.94;72.24;96297.97;4216631;28;5776;-63
2022/04/06 06:36:25;;;;;;;;;;;;;;;8.92;72.20;96292.09;4214862;28;5615;-63
2022/04/06 06:38:26;;;;;;;;;;;;;;;8.93;72.35;96305.06;4216011;28;5696;-63
2022/04/06 06:40:28;;;;;;;;;;;;;;;8.84;72.34;96298.38;4224743;28;5624;-63
2022/04/06 06:42:30;;;;;;;;;;;;;;;8.90;72.08;96291.47;4220781;27;5758;-63
2022/04/06 06:44:31;;;;;;;;;;;;;;;8.88;71.97;96296.13;4214594;28;5866;-63
2022/04/06 06:46:33;;;;;;;;;;;;;;;8.91;72.04;96295.75;4221045;28;5715;-63
2022/04/06 06:48:35;;;;;;;;;;;;;;;8.92;72.06;96302.63;4225033;28;5699;-63
2022/04/06 06:50:37;;;;;;;;;;;;;;;8.98;72.27;96302.69;4229029;28;5620;-63
2022/04/06 06:52:39;;;;;;;;;;;;;;;8.99;72.71;96309.59;4234318;28;5732;-63
2022/04/06 06:54:47;;;;;;;;;;;;;;;8.98;72.66;96297.41;4225852;28;6352;-63
2022/04/06 06:56:48;;;;;;;;;;;;;;;8.89;73.17;96297.75;4215945;28;5604;-65
2022/04/06 06:58:50;;;;;;;;;;;;;;;8.97;72.60;96305.53;4197610;28;5737;-63
2022/04/06 07:00:52;;;;;;;;;;;;;;;8.85;73.39;96301.81;4215360;28;5612;-63
2022/04/06 07:02:53;;;;;;;;;;;;;;;8.61;74.09;96301.25;4220280;28;5865;-62
2022/04/06 07:04:55;;;;;;;;;;;;;;;8.85;73.20;96300.00;4230829;28;5665;-63
2022/04/06 07:06:56;;;;;;;;;;;;;;;8.76;72.55;96303.78;4234063;28;5654;-63
2022/04/06 07:08:59;;;;;;;;;;;;;;;8.84;71.93;96300.19;4224475;28;5809;-63
2022/04/06 07:11:00;;;;;;;;;;;;;;;8.78;72.48;96300.94;4220492;27;5768;-63
2022/04/06 07:13:02;;;;;;;;;;;;;;;8.84;72.01;96303.63;4222083;28;5838;-63
2022/04/06 07:15:05;;;;;;;;;;;;;;;8.99;70.96;96298.22;4215796;28;6349;-63
2022/04/06 07:17:06;;;;;;;;;;;;;;;9.02;70.50;96297.84;4216525;28;5667;-63
2022/04/06 07:19:09;;;;;;;;;;;;;;;8.92;70.96;96298.19;4222700;28;5669;-63
2022/04/06 07:21:10;;;;;;;;;;;;;;;8.97;70.86;96290.53;4234075;28;5719;-63
2022/04/06 07:23:13;;;;;;;;;;;;;;;8.92;70.78;96279.72;4227081;28;5592;-63
2022/04/06 07:25:14;;;;;;;;;;;;;;;8.68;71.61;96288.09;4219453;28;6308;-63
2022/04/06 07:27:16;;;;;;;;;;;;;;;8.79;71.26;96290.22;4216488;28;5663;-63
2022/04/06 07:29:18;;;;;;;;;;;;;;;8.75;71.61;96288.97;4215862;28;5691;-63
2022/04/06 07:31:20;;;;;;;;;;;;;;;8.93;70.34;96288.44;4228880;28;5744;-62
2022/04/06 07:33:23;;;;;;;;;;;;;;;8.99;69.75;96288.50;4232112;28;5695;-63
2022/04/06 07:35:26;;;;;;;;;;;;;;;8.69;71.12;96290.56;4228529;27;5858;-63
2022/04/06 07:37:38;;;;;;;;;;;;;;;8.77;71.44;96286.16;4232393;28;5613;-63
2022/04/06 07:39:39;;;;;;;;;;;;;;;8.74;71.78;96284.72;4215717;28;5810;-63
2022/04/06 07:41:41;;;;;;;;;;;;;;;8.61;72.17;96280.19;4221887;28;5711;-63
2022/04/06 07:43:44;;;;;;;;;;;;;;;8.57;72.83;96278.09;4225907;28;5716;-62
2022/04/06 07:45:46;;;;;;;;;;;;;;;8.57;72.61;96278.91;4208293;28;5666;-63
2022/04/06 07:47:50;;;;;;;;;;;;;;;8.82;70.78;96283.72;4198572;28;6204;-63
2022/04/06 07:49:51;;;;;;;;;;;;;;;8.74;71.01;96280.25;4232135;27;5642;-64
2022/04/06 07:51:53;;;;;;;;;;;;;;;8.68;71.87;96278.38;4232477;28;5753;-63
2022/04/06 07:53:55;;;;;;;;;;;;;;;8.43;73.20;96272.75;4218662;28;5624;-63
2022/04/06 07:55:56;;;;;;;;;;;;;;;8.52;72.84;96268.16;4219380;28;5617;-63
2022/04/06 07:57:58;;;;;;;;;;;;;;;8.56;72.69;96266.75;4230774;28;5609;-63
2022/04/06 08:00:05;;;;;;;;;;;;;;;8.74;71.57;96264.44;4233632;27;5748;-63
2022/04/06 08:02:07;;;;;;;;;;;;;;;8.86;70.91;96262.06;4233454;27;5818;-63
2022/04/06 08:04:09;;;;;;;;;;;;;;;8.61;72.06;96261.75;4209194;28;5857;-61
2022/04/06 08:06:11;;;;;;;;;;;;;;;8.86;71.28;96261.25;4216201;28;5784;-62
2022/04/06 08:08:13;;;;;;;;;;;;;;;8.90;71.32;96255.38;4216203;28;5679;-62
2022/04/06 08:10:16;;;;;;;;;;;;;;;8.66;72.46;96258.50;4214794;28;5125;-62
2022/04/06 08:12:20;;;;;;;;;;;;;;;8.63;72.08;96259.72;4214090;28;7655;-61
2022/04/06 08:14:22;;;;;;;;;;;;;;;8.91;71.31;96253.56;4215114;28;5814;-62
2022/04/06 08:16:23;;;;;;;;;;;;;;;8.68;72.12;96259.13;4229458;28;5799;-62
2022/04/06 08:18:26;;;;;;;;;;;;;;;8.70;72.47;96246.56;4218922;28;5671;-62
2022/04/06 08:20:28;;;;;;;;;;;;;;;8.95;71.45;96260.09;4216211;28;5679;-62
2022/04/06 08:22:31;;;;;;;;;;;;;;;9.07;71.08;96250.63;4216486;28;5754;-62
2022/04/06 08:24:35;;;;;;;;;;;;;;;8.79;72.84;96255.13;4214841;28;5129;-62
2022/04/06 08:26:37;;;;;;;;;;;;;;;8.59;73.18;96257.66;4215312;28;5664;-62
2022/04/06 08:28:40;;;;;;;;;;;;;;;8.84;72.35;96250.09;4214771;28;5660;-62
2022/04/06 08:30:43;;;;;;;;;;;;;;;9.07;71.30;96249.81;4216467;28;6146;-62
2022/04/06 08:32:44;;;;;;;;;;;;;;;9.08;70.87;96249.59;4215155;28;5814;-63
2022/04/06 08:34:46;;;;;;;;;;;;;;;9.11;71.61;96243.13;4220155;28;5609;-62
2022/04/06 08:36:48;;;;;;;;;;;;;;;9.17;71.49;96243.13;4224516;28;5810;-62
2022/04/06 08:38:50;;;;;;;;;;;;;;;9.17;70.88;96253.66;4217992;28;5762;-62
2022/04/06 08:40:52;;;;;;;;;;;;;;;9.21;71.67;96254.09;4216119;28;5679;-62
2022/04/06 08:42:54;;;;;;;;;;;;;;;9.01;72.39;96248.75;4216296;28;5884;-62
2022/04/06 08:44:56;;;;;;;;;;;;;;;9.13;72.16;96246.38;4214251;28;5700;-62
2022/04/06 08:47:03;;;;;;;;;;;;;;;9.28;71.19;96245.19;4226295;28;5658;-62
2022/04/06 08:49:05;;;;;;;;;;;;;;;9.08;71.24;96244.34;4228308;27;5676;-62
2022/04/06 08:51:11;;;;;;;;;;;;;;;9.12;71.84;96250.81;4223073;28;5609;-63
2022/04/06 08:53:20;;;;;;;;;;;;;;;9.29;70.93;96246.84;4217658;28;5785;-62
2022/04/06 08:55:23;;;;;;;;;;;;;;;9.36;70.67;96240.75;4235625;28;5646;-62
2022/04/06 08:57:26;;;;;;;;;;;;;;;9.24;70.93;96243.97;4216145;28;5604;-62
2022/04/06 08:59:28;;;;;;;;;;;;;;;9.45;70.18;96236.94;4236611;28;5646;-62
2022/04/06 09:01:33;;;;;;;;;;;;;;;9.53;69.43;96242.03;4224876;28;5857;-62
2022/04/06 09:03:35;;;;;;;;;;;;;;;9.47;68.97;96241.00;4221401;28;5658;-61
2022/04/06 09:05:37;;;;;;;;;;;;;;;9.47;69.50;96233.06;4232754;28;5259;-62
2022/04/06 09:07:40;;;;;;;;;;;;;;;9.48;68.99;96239.16;4232866;28;5679;-63
2022/04/06 09:09:41;;;;;;;;;;;;;;;9.48;69.25;96232.06;4217572;28;5676;-62
2022/04/06 09:11:44;;;;;;;;;;;;;;;9.56;69.28;96233.72;4228797;28;5589;-62
2022/04/06 09:13:48;;;;;;;;;;;;;;;9.58;69.21;96232.50;4222200;28;5679;-62
2022/04/06 09:15:59;;;;;;;;;;;;;;;9.60;69.78;96230.47;4221927;28;5667;-62
2022/04/06 09:18:02;;;;;;;;;;;;;;;9.65;69.70;96237.78;4218880;28;5672;-62
2022/04/06 09:20:05;;;;;;;;;;;;;;;9.66;69.39;96231.50;4230380;28;5717;-62
2022/04/06 09:22:15;;;;;;;;;;;;;;;9.62;69.79;96235.53;4234917;28;5608;-62
2022/04/06 09:24:19;;;;;;;;;;;;;;;9.75;69.66;96232.13;4235742;28;5642;-62
2022/04/06 09:26:21;;;;;;;;;;;;;;;9.77;69.36;96238.81;4232725;28;5201;-62
2022/04/06 09:28:23;;;;;;;;;;;;;;;9.58;69.44;96231.69;4200669;28;5812;-63
2022/04/06 09:30:32;;;;;;;;;;;;;;;9.66;70.01;96239.41;4232355;28;5650;-62
2022/04/06 09:32:34;;;;;;;;;;;;;;;9.54;69.70;96228.63;4233709;28;5616;-62
2022/04/06 09:34:38;;;;;;;;;;;;;;;9.46;70.53;96233.28;4230291;28;5675;-62
2022/04/06 09:36:40;;;;;;;;;;;;;;;9.62;70.69;96231.06;4229904;28;5727;-62
2022/04/06 09:38:41;;;;;;;;;;;;;;;9.59;70.98;96222.75;4235885;28;5671;-62
2022/04/06 09:40:43;;;;;;;;;;;;;;;9.67;69.49;96222.56;4229451;27;5675;-62
2022/04/06 09:42:53;;;;;;;;;;;;;;;9.80;69.22;96227.84;4217847;28;5751;-62
2022/04/06 09:49:37;;;;;;;;;;;;;;;9.79;70.35;96214.84;4218442;28;5675;-62
2022/04/06 09:51:45;;;;;;;;;;;;;;;9.84;69.84;96213.22;4218522;28;5773;-62
2022/04/06 09:53:49;;;;;;;;;;;;;;;9.96;69.66;96209.97;4218038;28;5695;-62
2022/04/06 09:55:55;;;;;;;;;;;;;;;9.88;69.94;96205.72;4218828;28;5683;-62
2022/04/06 09:57:59;;;;;;;;;;;;;;;9.85;70.57;96204.31;4218781;28;5809;-62
2022/04/06 10:00:01;;;;;;;;;;;;;;;9.95;69.90;96197.78;4218655;28;5668;-62
2022/04/06 10:02:09;;;;;;;;;;;;;;;10.06;69.71;96189.25;4216996;28;5632;-63
2022/04/06 10:04:12;;;;;;;;;;;;;;;9.99;69.44;96197.19;4217094;28;5608;-62
2022/04/06 10:06:14;;;;;;;;;;;;;;;10.02;69.38;96194.16;4218530;28;5694;-62
2022/04/06 10:08:20;;;;;;;;;;;;;;;10.04;68.49;96191.28;4218618;28;5663;-62
2022/04/06 10:10:24;;;;;;;;;;;;;;;10.10;68.25;96183.38;4218350;28;5663;-62
2022/04/06 10:12:26;;;;;;;;;;;;;;;10.12;67.54;96183.16;4218246;28;6250;-62
2022/04/06 10:14:28;;;;;;;;;;;;;;;10.13;67.82;96174.22;4216723;28;6309;-62
2022/04/06 10:16:31;;;;;;;;;;;;;;;9.95;66.58;96166.91;4218450;28;5782;-61
2022/04/06 10:18:34;;;;;;;;;;;;;;;10.06;66.14;96162.84;4218192;28;5777;-61
2022/04/06 10:20:36;;;;;;;;;;;;;;;10.17;66.20;96173.59;4217969;28;5679;-62
2022/04/06 10:22:58;;;;;;;;;;;;;;;10.25;65.89;96158.59;4218239;28;5769;-62
2022/04/06 10:25:13;;;;;;;;;;;;;;;10.43;65.64;96164.06;4200167;28;5803;-61
2022/04/06 10:27:27;;;;;;;;;;;;;;;10.52;65.43;96154.03;4218375;28;5734;-65
2022/04/06 10:29:28;;;;;;;;;;;;;;;10.57;65.22;96156.91;4218456;28;5699;-62
2022/04/06 10:31:30;;;;;;;;;;;;;;;10.30;65.62;96156.13;4216942;28;5719;-62
2022/04/06 10:33:35;;;;;;;;;;;;;;;10.06;65.72;96152.28;4217757;28;5672;-62
2022/04/06 10:35:37;;;;;;;;;;;;;;;10.37;65.69;96143.72;4217606;28;5823;-62
2022/04/06 10:37:56;;;;;;;;;;;;;;;10.51;65.04;96142.66;4217589;28;6267;-64
2022/04/06 10:39:59;;;;;;;;;;;;;;;10.47;65.51;96137.00;4218214;28;5053;-62
2022/04/06 10:42:29;;;;;;;;;;;;;;;10.50;65.00;96133.13;4217969;28;5659;-62
2022/04/06 10:44:37;;;;;;;;;;;;;;;10.58;64.42;96118.88;4217543;28;5769;-61
2022/04/06 10:46:40;;;;;;;;;;;;;;;10.74;64.90;96113.09;4218183;28;5768;-62
2022/04/06 10:49:08;;;;;;;;;;;;;;;10.89;64.49;96116.28;4217435;28;5687;-61
2022/04/06 10:51:30;;;;;;;;;;;;;;;10.96;64.51;96106.47;4217781;28;5770;-63
2022/04/06 10:53:32;;;;;;;;;;;;;;;10.96;64.54;96111.75;4216084;28;5615;-62
2022/04/06 10:55:39;;;;;;;;;;;;;;;10.97;64.68;96113.38;4217498;28;5742;-62
2022/04/06 10:57:55;;;;;;;;;;;;;;;10.99;64.39;96106.06;4217759;28;5958;-62
2022/04/06 11:00:16;;;;;;;;;;;;;;;10.92;64.10;96105.28;4217582;28;6690;-62
2022/04/06 11:02:17;;;;;;;;;;;;;;;10.95;63.90;96098.75;4217392;28;5749;-62
2022/04/06 11:04:21;;;;;;;;;;;;;;;10.90;63.75;96102.03;4217102;28;6577;-63
2022/04/06 11:06:41;;;;;;;;;;;;;;;11.08;63.68;96093.38;4217816;28;5675;-61
2022/04/06 11:11:38;;;;;;;;;;;;;;;11.18;63.56;96091.09;4217211;28;5733;-62
2022/04/06 11:13:40;;;;;;;;;;;;;;;11.21;63.62;96079.25;4216891;28;5758;-62
2022/04/06 11:15:50;;;;;;;;;;;;;;;11.24;62.99;96084.13;4217328;28;5577;-62
2022/04/06 11:17:53;;;;;;;;;;;;;;;11.09;63.31;96081.78;4217037;28;7252;-62
2022/04/06 11:19:56;;;;;;;;;;;;;;;11.16;62.43;96079.91;4217076;28;5759;-63
2022/04/06 11:21:57;;;;;;;;;;;;;;;11.26;62.01;96084.72;4217485;28;5790;-62
2022/04/06 11:23:59;;;;;;;;;;;;;;;11.12;61.78;96085.84;4217424;28;5841;-61
2022/04/06 11:26:01;;;;;;;;;;;;;;;11.20;62.04;96075.81;4217355;28;5655;-61
2022/04/06 11:28:08;;;;;;;;;;;;;;;11.30;62.06;96070.84;4217465;28;5675;-62
2022/04/06 11:30:16;;;;;;;;;;;;;;;11.39;62.18;96068.75;4217232;28;5771;-62
2022/04/06 11:32:17;;;;;;;;;;;;;;;11.47;62.20;96065.84;4217122;28;5667;-61
2022/04/06 11:34:32;;;;;;;;;;;;;;;11.50;61.94;96057.47;4216749;28;5668;-62
2022/04/06 11:36:37;;;;;;;;;;;;;;;11.60;62.10;96062.28;4217202;28;5660;-62
2022/04/06 11:38:38;;;;;;;;;;;;;;;11.65;62.04;96057.94;4216052;28;5650;-61
2022/04/06 11:40:42;;;;;;;;;;;;;;;11.68;61.92;96056.72;4212827;28;5778;-61
2022/04/06 11:43:05;;;;;;;;;;;;;;;11.68;62.38;96053.25;4213190;28;5620;-62
2022/04/06 11:45:09;;;;;;;;;;;;;;;11.74;62.28;96049.72;4216265;28;5670;-62
2022/04/06 11:47:11;;;;;;;;;;;;;;;11.76;61.97;96048.47;4215559;28;5613;-63
2022/04/06 11:49:19;;;;;;;;;;;;;;;11.87;62.16;96047.78;4214552;28;5704;-63
2022/04/06 11:51:21;;;;;;;;;;;;;;;11.82;62.04;96049.47;4200278;28;5724;-63
2022/04/06 11:53:28;;;;;;;;;;;;;;;11.82;62.36;96045.00;4205983;28;5697;-63
2022/04/06 11:55:54;;;;;;;;;;;;;;;11.89;62.08;96042.25;4210386;28;5709;-62
2022/04/06 11:57:56;;;;;;;;;;;;;;;11.95;61.58;96052.78;4215575;28;5682;-64
2022/04/06 11:59:58;;;;;;;;;;;;;;;11.95;61.91;96041.41;4216129;28;5700;-61
2022/04/06 12:01:59;;;;;;;;;;;;;;;11.91;62.31;96045.53;4199981;28;5763;-62
2022/04/06 12:04:12;;;;;;;;;;;;;;;11.98;62.20;96046.25;4199874;28;5697;-63
2022/04/06 12:06:15;;;;;;;;;;;;;;;12.01;62.34;96032.59;4211304;28;5130;-63
2022/04/06 12:08:17;;;;;;;;;;;;;;;12.16;62.07;96032.22;4214747;28;7702;-62
2022/04/06 12:10:19;;;;;;;;;;;;;;;12.17;61.83;96028.53;4212829;28;5926;-63
2022/04/06 12:12:23;;;;;;;;;;;;;;;12.23;60.86;96019.66;4216900;28;5852;-62
2022/04/06 12:14:25;;;;;;;;;;;;;;;12.31;61.77;96023.88;4215922;28;5742;-62
2022/04/06 12:16:27;;;;;;;;;;;;;;;12.38;60.80;96016.66;4223351;28;5675;-63
2022/04/06 12:18:30;;;;;;;;;;;;;;;12.34;59.62;96013.63;4232336;28;5820;-63
2022/04/06 12:20:32;;;;;;;;;;;;;;;12.38;59.87;96008.72;4224932;28;5651;-62
2022/04/06 12:22:34;;;;;;;;;;;;;;;12.49;59.73;96000.81;4216754;28;5679;-62
2022/04/06 12:24:46;;;;;;;;;;;;;;;12.54;59.99;95998.28;4216955;28;5740;-62
2022/04/06 12:26:54;;;;;;;;;;;;;;;12.66;60.18;96000.16;4220082;28;5223;-62
2022/04/06 12:29:00;;;;;;;;;;;;;;;12.73;59.84;95993.75;4220210;28;7706;-62
2022/04/06 12:31:05;;;;;;;;;;;;;;;12.76;57.65;95985.31;4218455;28;5103;-62
2022/04/06 12:33:08;;;;;;;;;;;;;;;12.83;57.99;95986.06;4230432;28;5712;-63
2022/04/06 12:35:36;;;;;;;;;;;;;;;12.89;58.09;95994.94;4231620;28;6428;-62
2022/04/06 12:37:39;;;;;;;;;;;;;;;12.95;57.85;95993.22;4221413;28;6177;-62
2022/04/06 12:39:54;;;;;;;;;;;;;;;13.06;57.92;95985.28;4219511;28;5796;-63
2022/04/06 12:42:09;;;;;;;;;;;;;;;13.15;57.52;95980.47;4220039;28;5781;-62
2022/04/06 12:44:15;;;;;;;;;;;;;;;13.07;57.48;95986.91;4220052;28;5688;-62
2022/04/06 12:46:36;;;;;;;;;;;;;;;13.18;57.58;95985.31;4219786;28;5672;-63
2022/04/06 12:48:38;;;;;;;;;;;;;;;13.04;56.61;95981.25;4219916;28;5682;-62
2022/04/06 12:50:51;;;;;;;;;;;;;;;12.98;57.90;95972.34;4218429;28;5650;-62
2022/04/06 12:53:02;;;;;;;;;;;;;;;13.12;58.49;95972.94;4219613;28;6364;-64
2022/04/06 12:55:13;;;;;;;;;;;;;;;13.17;58.60;95965.13;4219675;28;5690;-62
2022/04/06 12:57:28;;;;;;;;;;;;;;;13.24;58.71;95963.19;4219505;28;5671;-62
2022/04/06 12:59:43;;;;;;;;;;;;;;;13.33;58.50;95961.00;4219835;28;5754;-62
2022/04/06 13:01:49;;;;;;;;;;;;;;;13.42;58.64;95961.47;4219728;28;5694;-62
2022/04/06 13:03:58;;;;;;;;;;;;;;;13.51;58.33;95960.09;4219477;28;5670;-62
2022/04/06 13:06:00;;;;;;;;;;;;;;;13.60;57.69;95956.06;4219406;28;5762;-62
2022/04/06 13:08:06;;;;;;;;;;;;;;;13.64;57.56;95955.34;4216216;28;5678;-62
2022/04/06 13:10:11;;;;;;;;;;;;;;;13.67;57.80;95954.88;4220894;28;5659;-62
2022/04/06 13:12:13;;;;;;;;;;;;;;;13.74;58.03;95948.63;4220955;28;6240;-62
2022/04/06 13:14:15;;;;;;;;;;;;;;;13.70;56.78;95945.63;4226250;28;5915;-63
2022/04/06 13:16:16;;;;;;;;;;;;;;;13.69;57.38;95941.34;4215225;28;5886;-62
2022/04/06 13:18:18;;;;;;;;;;;;;;;13.78;57.19;95933.84;4236108;28;5774;-63
2022/04/06 13:20:22;;;;;;;;;;;;;;;13.75;56.62;95935.13;4225568;28;5748;-62
2022/04/06 13:22:24;;;;;;;;;;;;;;;13.79;56.50;95927.47;4226971;28;5601;-62
2022/04/06 13:24:25;;;;;;;;;;;;;;;13.79;56.72;95919.50;4218281;28;5883;-62
2022/04/06 13:26:32;;;;;;;;;;;;;;;13.83;55.93;95926.00;4206084;28;6847;-62
2022/04/06 13:28:34;;;;;;;;;;;;;;;13.85;56.43;95924.72;4210482;28;5680;-64
2022/04/06 13:30:36;;;;;;;;;;;;;;;13.91;56.10;95922.94;4218502;28;5671;-64
2022/04/06 13:32:38;;;;;;;;;;;;;;;13.92;55.80;95920.06;4218719;28;5691;-66
2022/04/06 13:34:39;;;;;;;;;;;;;;;13.92;55.54;95917.41;4217153;28;5671;-62
2022/04/06 13:36:41;;;;;;;;;;;;;;;14.01;55.61;95917.84;4209551;28;5688;-63
2022/04/06 13:38:43;;;;;;;;;;;;;;;14.07;55.86;95918.75;4217936;28;5687;-63
2022/04/06 13:40:44;;;;;;;;;;;;;;;14.10;55.72;95919.09;4231018;28;5831;-63
2022/04/06 13:42:46;;;;;;;;;;;;;;;14.12;55.89;95914.34;4224313;28;5871;-64
2022/04/06 13:44:48;;;;;;;;;;;;;;;14.17;55.92;95911.78;4219740;28;5770;-64
2022/04/06 13:46:55;;;;;;;;;;;;;;;14.09;55.06;95909.50;4217975;28;5734;-64
2022/04/06 13:48:57;;;;;;;;;;;;;;;14.04;56.26;95916.56;4219105;28;5705;-63
2022/04/06 13:51:00;;;;;;;;;;;;;;;14.14;55.99;95903.47;4218592;28;5681;-63
2022/04/06 13:53:01;;;;;;;;;;;;;;;14.15;55.01;95905.88;4230959;27;6389;-63
2022/04/06 13:55:04;;;;;;;;;;;;;;;14.05;55.98;95903.06;4214657;28;5827;-63
2022/04/06 13:57:05;;;;;;;;;;;;;;;14.08;56.08;95905.22;4213743;28;5659;-61
2022/04/06 13:59:07;;;;;;;;;;;;;;;13.98;55.43;95897.06;4216192;28;6384;-64
2022/04/06 14:01:10;;;;;;;;;;;;;;;13.94;55.31;95891.41;4205061;27;5791;-62
2022/04/06 14:03:12;;;;;;;;;;;;;;;14.05;55.76;95891.63;4208916;28;5627;-62
2022/04/06 14:05:18;;;;;;;;;;;;;;;14.20;55.67;95889.25;4211604;28;5743;-63
2022/04/06 14:07:20;;;;;;;;;;;;;;;14.16;55.40;95882.78;4223246;28;5123;-62
2022/04/06 14:09:22;;;;;;;;;;;;;;;14.29;55.57;95887.81;4219623;28;5671;-62
2022/04/06 14:11:24;;;;;;;;;;;;;;;14.38;55.04;95882.91;4212969;28;5759;-63
2022/04/06 14:13:27;;;;;;;;;;;;;;;14.41;55.06;95883.25;4210754;28;6865;-65
2022/04/06 14:15:29;;;;;;;;;;;;;;;14.43;55.13;95883.00;4216317;28;5819;-62
2022/04/06 14:17:31;;;;;;;;;;;;;;;14.46;55.06;95883.34;4217458;28;5878;-62
2022/04/06 14:19:34;;;;;;;;;;;;;;;14.45;55.18;95879.09;4215809;28;5788;-61
2022/04/06 14:21:37;;;;;;;;;;;;;;;14.45;55.40;95879.09;4213565;28;5772;-62
2022/04/06 14:23:40;;;;;;;;;;;;;;;14.45;55.70;95881.75;4210406;28;5748;-63
2022/04/06 14:25:43;;;;;;;;;;;;;;;14.40;56.31;95873.66;4211029;28;5900;-63
2022/04/06 14:27:45;;;;;;;;;;;;;;;14.40;56.68;95878.97;4214075;28;5653;-63
2022/04/06 14:29:46;;;;;;;;;;;;;;;14.49;56.54;95872.22;4231139;28;5732;-62
2022/04/06 14:31:49;;;;;;;;;;;;;;;14.50;56.63;95868.56;4213510;28;5703;-63
2022/04/06 14:33:51;;;;;;;;;;;;;;;14.54;56.85;95876.84;4212229;28;5670;-63
2022/04/06 14:35:53;;;;;;;;;;;;;;;14.54;57.01;95874.19;4219847;28;5754;-63
2022/04/06 14:37:55;;;;;;;;;;;;;;;14.54;58.06;95872.34;4209445;28;5716;-63
2022/04/06 14:39:57;;;;;;;;;;;;;;;14.50;57.49;95867.75;4228523;28;5686;-62
2022/04/06 14:41:59;;;;;;;;;;;;;;;14.59;56.69;95865.47;4217523;28;5691;-63
2022/04/06 14:44:00;;;;;;;;;;;;;;;14.62;56.30;95865.03;4215026;28;5694;-62
2022/04/06 14:46:03;;;;;;;;;;;;;;;14.47;57.28;95873.53;4213848;28;5125;-62
2022/04/06 14:48:05;;;;;;;;;;;;;;;14.27;59.58;95874.78;4209690;28;6370;-63
2022/04/06 14:50:08;;;;;;;;;;;;;;;14.12;59.93;95871.00;4213768;28;5664;-63
2022/04/06 14:52:10;;;;;;;;;;;;;;;14.07;60.39;95870.94;4217335;28;5766;-64
2022/04/06 14:54:11;;;;;;;;;;;;;;;14.04;59.93;95876.69;4218388;28;5676;-63
2022/04/06 14:56:14;;;;;;;;;;;;;;;14.07;59.63;95868.28;4218568;28;5747;-63
2022/04/06 14:58:15;;;;;;;;;;;;;;;14.07;59.03;95876.25;4216089;28;5773;-61
2022/04/06 15:00:17;;;;;;;;;;;;;;;14.13;59.22;95875.28;4223902;27;5153;-64
2022/04/06 15:02:19;;;;;;;;;;;;;;;14.05;58.68;95879.13;4209342;28;5733;-64
2022/04/06 15:04:21;;;;;;;;;;;;;;;14.12;58.28;95873.66;4200293;28;5875;-64
2022/04/06 15:06:22;;;;;;;;;;;;;;;14.07;58.60;95873.59;4200729;28;5097;-65
2022/04/06 15:08:24;;;;;;;;;;;;;;;14.09;58.20;95871.50;4200454;28;5721;-64
2022/04/06 15:10:27;;;;;;;;;;;;;;;14.03;58.67;95862.59;4200562;28;5693;-64
2022/04/06 15:12:30;;;;;;;;;;;;;;;13.98;59.27;95867.84;4214429;28;5780;-63
2022/04/06 15:14:32;;;;;;;;;;;;;;;14.02;57.74;95871.63;4217294;28;5777;-63
2022/04/06 15:16:33;;;;;;;;;;;;;;;14.11;58.07;95866.75;4217335;28;5790;-64
2022/04/06 15:18:35;;;;;;;;;;;;;;;14.14;56.99;95868.91;4210434;28;5696;-64